Time;durP1;ratioP1;P1;durP2;ratioP2;P2;SDS_P1;SDS_P2;PMS_P1;PMS_P2;Temp;Humidity;BMP_temperature;BMP_pressure;BME280_temperature;BME280_humidity;BME280_pressure;Samples;Min_cycle;Max_cycle;Signal;HPM_P1;HPM_P2
2022/10/03 00:00:36;;;;;;;0.98;0.80;;;19.90;49.10;;;;;;5051660;28;19924;-11
2022/10/03 00:03:11;;;;;;;1.70;0.93;;;19.90;49.10;;;;;;5051561;28;20402;-11
2022/10/03 00:05:51;;;;;;;2.00;1.00;;;19.90;49.20;;;;;;5051611;28;20084;-11
2022/10/03 00:08:42;;;;;;;2.15;1.02;;;19.90;49.20;;;;;;5051100;28;20053;-12
2022/10/03 00:11:48;;;;;;;1.33;0.80;;;19.90;49.10;;;;;;5051031;28;20080;-11
2022/10/03 00:14:21;;;;;;;1.88;1.33;;;19.90;49.10;;;;;;5051329;28;20056;-11
2022/10/03 00:17:05;;;;;;;1.02;0.90;;;19.90;49.10;;;;;;5051341;28;20548;-11
2022/10/03 00:19:39;;;;;;;2.35;1.33;;;19.90;49.10;;;;;;5051208;28;20050;-11
2022/10/03 00:22:42;;;;;;;1.23;0.77;;;19.90;49.10;;;;;;5051227;28;20477;-11
2022/10/03 00:25:45;;;;;;;1.58;0.70;;;19.90;49.10;;;;;;5051657;28;20053;-11
2022/10/03 00:28:26;;;;;;;1.23;1.00;;;19.90;49.20;;;;;;5048296;28;20410;-11
2022/10/03 00:31:13;;;;;;;2.58;1.02;;;19.80;49.20;;;;;;5049809;28;20060;-11
2022/10/03 00:34:07;;;;;;;2.05;0.90;;;19.80;49.20;;;;;;5050899;28;20530;-11
2022/10/03 00:37:15;;;;;;;1.83;1.02;;;19.90;49.20;;;;;;5051117;28;22233;-12
2022/10/03 00:40:04;;;;;;;2.20;1.00;;;19.90;49.20;;;;;;5051012;28;20076;-11
2022/10/03 00:43:02;;;;;;;1.08;0.95;;;19.90;49.10;;;;;;5051016;28;20063;-11
2022/10/03 00:45:48;;;;;;;2.00;1.00;;;19.90;49.10;;;;;;5053957;28;20060;-11
2022/10/03 00:48:55;;;;;;;1.73;0.90;;;19.90;49.10;;;;;;5050962;28;20484;-11
2022/10/03 00:51:53;;;;;;;1.75;1.02;;;19.90;49.20;;;;;;5038202;28;20045;-11
2022/10/03 00:54:47;;;;;;;1.55;0.90;;;19.90;49.20;;;;;;5050749;28;21042;-11
2022/10/03 00:57:42;;;;;;;1.00;0.85;;;19.80;49.20;;;;;;5051076;28;20049;-11
2022/10/03 01:00:25;;;;;;;3.50;1.02;;;19.80;49.20;;;;;;5050630;28;20055;-11
2022/10/03 01:02:51;;;;;;;2.08;1.05;;;19.80;49.20;;;;;;5050741;28;20075;-11
2022/10/03 01:05:54;;;;;;;2.47;1.10;;;19.80;49.30;;;;;;5050542;28;20053;-12
2022/10/03 01:08:43;;;;;;;1.80;1.05;;;19.80;49.20;;;;;;5050739;28;20049;-11
2022/10/03 01:11:14;;;;;;;2.38;0.90;;;19.90;49.20;;;;;;5050211;28;20532;-11
2022/10/03 01:13:58;;;;;;;1.20;1.10;;;19.90;49.20;;;;;;5050183;28;20549;-11
2022/10/03 01:16:41;;;;;;;1.65;0.98;;;19.90;49.20;;;;;;5050300;28;20504;-11
2022/10/03 01:19:45;;;;;;;2.00;1.00;;;19.90;49.20;;;;;;5050357;28;20055;-11
2022/10/03 01:22:14;;;;;;;2.67;0.95;;;19.80;49.10;;;;;;5050481;28;20045;-11
2022/10/03 01:24:56;;;;;;;1.90;1.00;;;19.90;49.20;;;;;;5050527;28;20056;-11
2022/10/03 01:30:42;;;;;;;1.50;0.93;;;19.90;49.20;;;;;;5050665;28;20048;-11
2022/10/03 01:33:28;;;;;;;2.03;1.17;;;19.80;49.10;;;;;;5050259;28;20057;-11
2022/10/03 01:36:18;;;;;;;1.45;0.95;;;19.80;49.20;;;;;;5050765;28;20063;-11
2022/10/03 01:38:50;;;;;;;2.58;1.30;;;19.80;49.20;;;;;;5050310;28;20122;-11
2022/10/03 01:41:58;;;;;;;2.88;1.10;;;19.80;49.20;;;;;;5050453;28;20060;-11
2022/10/03 01:44:55;;;;;;;2.30;1.00;;;19.80;49.30;;;;;;5050465;28;20526;-11
2022/10/03 01:48:02;;;;;;;1.08;0.85;;;19.80;49.30;;;;;;5056957;28;20052;-11
2022/10/03 01:50:53;;;;;;;2.25;1.00;;;19.80;49.30;;;;;;5060518;28;20044;-11
2022/10/03 01:53:25;;;;;;;;;;;19.80;49.20;;;;;;5050408;28;20502;-11
2022/10/03 01:55:50;;;;;;;;;;;19.80;49.30;;;;;;5050539;28;19917;-11
2022/10/03 01:58:25;;;;;;;1.58;1.00;;;19.80;49.30;;;;;;5049512;28;20400;-11
2022/10/03 02:01:07;;;;;;;2.47;1.10;;;19.80;49.20;;;;;;5050024;28;20041;-11
2022/10/03 02:03:53;;;;;;;3.15;1.38;;;19.90;49.20;;;;;;5050156;28;20561;-11
2022/10/03 02:06:42;;;;;;;1.80;0.98;;;19.80;49.10;;;;;;5049760;28;20048;-12
2022/10/03 02:09:33;;;;;;;1.75;0.95;;;19.90;49.20;;;;;;5049656;28;20060;-11
2022/10/03 02:12:33;;;;;;;2.25;0.80;;;19.80;49.20;;;;;;5049811;28;20084;-11
2022/10/03 02:15:13;;;;;;;1.77;1.00;;;19.80;49.20;;;;;;5050057;28;20140;-11
2022/10/03 02:18:11;;;;;;;1.40;1.13;;;19.80;49.30;;;;;;5049641;28;20048;-12
2022/10/03 02:20:47;;;;;;;1.55;0.98;;;19.80;49.20;;;;;;5049604;28;20487;-11
2022/10/03 02:23:30;;;;;;;1.13;0.82;;;19.90;49.20;;;;;;5049621;28;20525;-11
2022/10/03 02:26:34;;;;;;;2.35;1.05;;;19.90;49.10;;;;;;5049724;28;20052;-11
2022/10/03 02:29:21;;;;;;;3.45;1.13;;;19.80;49.10;;;;;;5049777;28;20056;-11
2022/10/03 02:32:06;;;;;;;1.45;0.90;;;19.80;49.20;;;;;;5049520;28;20466;-11
2022/10/03 02:34:58;;;;;;;1.95;0.90;;;19.80;49.20;;;;;;5049676;28;20478;-11
2022/10/03 02:38:02;;;;;;;1.70;1.10;;;19.90;49.20;;;;;;5049626;28;20060;-11
2022/10/03 02:40:52;;;;;;;2.63;1.10;;;19.80;49.20;;;;;;5049371;28;20102;-11
2022/10/03 02:43:40;;;;;;;2.20;1.00;;;19.80;49.10;;;;;;5049289;28;20107;-11
2022/10/03 02:46:45;;;;;;;1.23;0.90;;;19.80;49.20;;;;;;5049126;28;20053;-11
2022/10/03 02:49:37;;;;;;;1.73;0.95;;;19.80;49.20;;;;;;5049163;28;20049;-11
2022/10/03 02:52:17;;;;;;;2.80;1.17;;;19.80;49.20;;;;;;5049512;28;20049;-11
2022/10/03 02:55:02;;;;;;;1.80;0.90;;;19.80;49.20;;;;;;5049520;28;20056;-11
2022/10/03 02:57:36;;;;;;;2.08;0.98;;;19.80;49.20;;;;;;5049065;28;20417;-11
2022/10/03 03:00:04;;;;;;;1.30;0.70;;;19.90;49.10;;;;;;5049143;28;20053;-11
2022/10/03 03:02:57;;;;;;;1.65;1.02;;;19.90;49.00;;;;;;5049043;28;20081;-11
2022/10/03 03:06:11;;;;;;;1.55;0.98;;;20.00;48.90;;;;;;5049052;28;20053;-11
2022/10/03 03:08:56;;;;;;;2.20;1.00;;;20.00;48.80;;;;;;5048757;28;20053;-11
2022/10/03 03:11:58;;;;;;;1.67;1.02;;;20.00;48.70;;;;;;5048866;28;20139;-11
2022/10/03 03:14:45;;;;;;;2.17;0.98;;;20.10;48.60;;;;;;5048841;28;20055;-11
2022/10/03 03:17:17;;;;;;;3.08;0.90;;;20.20;48.50;;;;;;5048538;28;20080;-11
2022/10/03 03:20:16;;;;;;;1.83;1.27;;;20.20;48.40;;;;;;5048548;28;20060;-11
2022/10/03 03:23:22;;;;;;;1.55;0.90;;;20.20;48.30;;;;;;5048727;28;20057;-11
2022/10/03 03:26:11;;;;;;;1.35;0.90;;;20.30;48.30;;;;;;5048650;28;20083;-11
2022/10/03 03:28:53;;;;;;;2.25;1.08;;;20.30;48.20;;;;;;5048574;28;20053;-11
2022/10/03 03:31:37;;;;;;;1.13;0.85;;;20.30;48.20;;;;;;5048498;28;20105;-11
2022/10/03 03:34:53;;;;;;;2.05;1.17;;;20.40;48.20;;;;;;5047401;28;20061;-11
2022/10/03 03:37:33;;;;;;;1.85;0.82;;;20.40;48.10;;;;;;5071925;28;20052;-11
2022/10/03 03:40:10;;;;;;;1.60;1.00;;;20.40;48.10;;;;;;5053303;28;20383;-11
2022/10/03 03:42:49;;;;;;;2.25;1.17;;;20.50;48.00;;;;;;5051954;28;20402;-11
2022/10/03 03:45:39;;;;;;;1.25;0.80;;;20.50;47.90;;;;;;5051647;28;20395;-11
2022/10/03 03:48:18;;;;;;;1.00;0.80;;;20.60;48.00;;;;;;5051774;28;20053;-11
2022/10/03 03:51:09;;;;;;;1.63;1.00;;;20.60;47.90;;;;;;5051753;28;20057;-11
2022/10/03 03:53:52;;;;;;;2.00;0.98;;;20.60;47.80;;;;;;5051576;28;20151;-11
2022/10/03 03:56:50;;;;;;;1.10;0.95;;;20.60;47.80;;;;;;5051331;28;20049;-12
2022/10/03 03:59:49;;;;;;;3.30;1.33;;;20.60;47.80;;;;;;5051399;28;20483;-11
2022/10/03 04:02:44;;;;;;;2.35;1.27;;;20.70;47.80;;;;;;5051731;28;20053;-11
2022/10/03 04:05:47;;;;;;;1.38;0.70;;;20.60;47.80;;;;;;5053818;28;20576;-11
2022/10/03 04:08:24;;;;;;;1.40;0.93;;;20.60;47.70;;;;;;5051192;28;20556;-11
2022/10/03 04:11:11;;;;;;;2.10;0.90;;;20.70;47.80;;;;;;5051319;28;20041;-11
2022/10/03 04:14:04;;;;;;;1.30;0.88;;;20.70;47.70;;;;;;5051076;28;20065;-11
2022/10/03 04:19:38;;;;;;;2.10;1.10;;;20.70;47.70;;;;;;5048074;28;20076;-11
2022/10/03 04:22:10;;;;;;;0.85;0.70;;;20.60;47.70;;;;;;5051466;28;20053;-11
2022/10/03 04:25:27;;;;;;;1.52;0.95;;;20.60;47.70;;;;;;5051267;28;20075;-11
2022/10/03 04:28:33;;;;;;;1.95;1.00;;;20.60;47.70;;;;;;5054326;28;20101;-11
2022/10/03 04:31:29;;;;;;;2.25;1.05;;;20.60;47.70;;;;;;5051118;28;20414;-11
2022/10/03 04:34:19;;;;;;;2.10;0.93;;;20.60;47.70;;;;;;5051023;28;20080;-11
2022/10/03 04:37:10;;;;;;;2.58;1.10;;;20.60;47.70;;;;;;5051045;28;20407;-11
2022/10/03 04:40:04;;;;;;;2.55;1.13;;;20.60;47.80;;;;;;5050969;28;20080;-11
2022/10/03 04:42:41;;;;;;;1.95;1.00;;;20.50;47.80;;;;;;5050984;28;20045;-11
2022/10/03 04:45:18;;;;;;;1.52;1.05;;;20.60;47.90;;;;;;5051260;28;20140;-11
2022/10/03 04:48:15;;;;;;;1.08;0.90;;;20.50;47.90;;;;;;5049917;28;20535;-11
2022/10/03 04:51:11;;;;;;;1.05;0.95;;;20.50;48.50;;;;;;5050799;28;20398;-11
2022/10/03 04:54:03;;;;;;;1.90;1.00;;;20.50;48.00;;;;;;5050681;28;20512;-11
2022/10/03 04:56:49;;;;;;;1.73;1.13;;;20.50;48.00;;;;;;5051437;28;20434;-11
2022/10/03 04:59:49;;;;;;;1.60;0.90;;;20.50;48.10;;;;;;5050636;28;20052;-11
2022/10/03 05:02:33;;;;;;;3.08;1.20;;;20.50;48.10;;;;;;5050697;28;20177;-11
2022/10/03 05:05:26;;;;;;;1.98;0.95;;;20.50;48.10;;;;;;5050733;28;20505;-11
2022/10/03 05:07:59;;;;;;;1.52;0.80;;;20.50;48.10;;;;;;5050679;28;20421;-12
2022/10/03 05:10:47;;;;;;;1.63;0.85;;;20.50;48.00;;;;;;5050987;28;20045;-11
2022/10/03 05:13:29;;;;;;;2.47;1.00;;;20.50;48.10;;;;;;5050389;28;20068;-11
2022/10/03 05:16:13;;;;;;;2.13;1.00;;;20.50;48.00;;;;;;5050482;28;20049;-12
2022/10/03 05:19:27;;;;;;;1.83;0.90;;;20.50;48.00;;;;;;5050434;28;20152;-11
2022/10/03 05:22:07;;;;;;;1.85;1.05;;;20.50;48.00;;;;;;5050593;28;20052;-12
2022/10/03 05:24:39;;;;;;;1.65;0.90;;;20.50;47.90;;;;;;5050751;28;20041;-9
2022/10/03 05:27:21;;;;;;;1.92;1.08;;;20.50;47.90;;;;;;5050895;28;20502;-9
2022/10/03 05:30:07;;;;;;;2.92;0.90;;;20.50;47.90;;;;;;5050431;28;20121;-9
2022/10/03 05:33:02;;;;;;;1.77;1.02;;;20.50;47.80;;;;;;5050364;28;20053;-9
2022/10/03 05:36:05;;;;;;;1.55;0.90;;;20.50;47.90;;;;;;5050631;28;20134;-9
2022/10/03 05:38:57;;;;;;;1.42;0.93;;;20.50;47.80;;;;;;5050561;28;20467;-10
2022/10/03 05:41:37;;;;;;;1.00;0.73;;;20.60;47.80;;;;;;5050273;28;20052;-9
2022/10/03 05:44:11;;;;;;;1.38;1.10;;;20.60;47.80;;;;;;5050761;28;20100;-9
2022/10/03 05:46:57;;;;;;;1.70;0.82;;;20.60;47.70;;;;;;5049937;28;20053;-12
2022/10/03 05:49:34;;;;;;;2.97;1.02;;;20.60;47.70;;;;;;5048609;28;20053;-12
2022/10/03 05:52:20;;;;;;;2.05;0.95;;;20.60;47.60;;;;;;5050231;28;20056;-12
2022/10/03 05:55:07;;;;;;;1.10;0.80;;;20.60;47.50;;;;;;5050317;28;20044;-9
2022/10/03 05:58:08;;;;;;;1.30;0.90;;;20.70;47.40;;;;;;5049499;28;20059;-10
2022/10/03 06:00:49;;;;;;;1.33;1.05;;;20.80;47.40;;;;;;5049591;28;20045;-10
2022/10/03 06:03:53;;;;;;;1.40;0.82;;;20.80;47.30;;;;;;5050366;28;20061;-10
2022/10/03 06:06:23;;;;;;;1.38;0.93;;;20.80;47.20;;;;;;5049706;28;20053;-10
2022/10/03 06:08:49;;;;;;;2.50;1.20;;;20.80;47.10;;;;;;5049768;28;20045;-10
2022/10/03 06:11:39;;;;;;;2.17;0.73;;;20.80;47.10;;;;;;5049656;28;20148;-10
2022/10/03 06:14:42;;;;;;;1.27;0.70;;;20.90;47.00;;;;;;5049774;28;20455;-10
2022/10/03 06:17:42;;;;;;;1.88;0.95;;;21.00;46.80;;;;;;5049730;28;20056;-10
2022/10/03 06:20:36;;;;;;;1.83;0.60;;;21.00;46.80;;;;;;5049427;28;20045;-10
2022/10/03 06:23:21;;;;;;;1.40;1.17;;;20.90;46.90;;;;;;5050253;28;20049;-10
2022/10/03 06:25:53;;;;;;;1.05;0.68;;;20.90;47.00;;;;;;5049645;28;20061;-10
2022/10/03 06:28:37;;;;;;;1.60;0.85;;;20.90;47.00;;;;;;5049666;28;20486;-10
2022/10/03 06:31:38;;;;;;;2.70;0.93;;;20.90;47.00;;;;;;5049829;28;20053;-10
2022/10/03 06:34:23;;;;;;;1.52;0.90;;;20.90;47.00;;;;;;5049653;28;20519;-10
2022/10/03 06:37:04;;;;;;;1.55;0.90;;;20.80;47.10;;;;;;5049536;28;20083;-9
2022/10/03 06:40:00;;;;;;;1.80;1.00;;;20.80;47.10;;;;;;5049469;28;20053;-10
2022/10/03 06:43:03;;;;;;;1.45;0.80;;;20.80;47.10;;;;;;5049621;28;20486;-10
2022/10/03 06:46:06;;;;;;;1.67;0.80;;;20.80;47.30;;;;;;5049259;28;20045;-10
2022/10/03 06:49:11;;;;;;;1.48;1.02;;;20.80;47.30;;;;;;5049355;28;20045;-10
2022/10/03 06:51:55;;;;;;;1.17;0.75;;;20.80;47.30;;;;;;5058382;28;20546;-10
2022/10/03 06:55:03;;;;;;;1.30;0.85;;;20.80;47.30;;;;;;5049526;28;20059;-10
2022/10/03 06:58:06;;;;;;;0.85;0.70;;;20.80;47.30;;;;;;5049150;28;20113;-10
2022/10/03 07:00:50;;;;;;;1.08;0.80;;;20.80;47.40;;;;;;5049052;28;20176;-10
2022/10/03 07:03:34;;;;;;;1.65;0.88;;;20.80;47.40;;;;;;5049106;28;20435;-10
2022/10/03 07:06:06;;;;;;;2.47;1.33;;;20.80;47.40;;;;;;5048928;28;20056;-10
2022/10/03 07:08:35;;;;;;;;;;;20.80;47.40;;;;;;5049582;28;20053;-10
2022/10/03 07:11:09;;;;;;;1.30;0.80;;;20.80;47.40;;;;;;5050117;28;19917;-10
2022/10/03 07:13:56;;;;;;;2.25;1.17;;;20.80;47.40;;;;;;5052384;28;20056;-10
2022/10/03 07:16:43;;;;;;;1.48;0.88;;;21.00;47.10;;;;;;5051909;28;20101;-10
2022/10/03 07:19:32;;;;;;;1.52;0.93;;;21.20;46.70;;;;;;5051899;28;20045;-10
2022/10/03 07:22:48;;;;;;;1.77;0.80;;;21.30;46.40;;;;;;5051958;28;20428;-10
2022/10/03 07:25:32;;;;;;;2.35;1.00;;;21.40;46.30;;;;;;5073046;28;20087;-10
2022/10/03 07:28:23;;;;;;;2.25;0.90;;;21.50;45.90;;;;;;5051871;28;20426;-10
2022/10/03 07:31:11;;;;;;;2.57;1.00;;;21.50;45.90;;;;;;5051911;28;20075;-10
2022/10/03 07:34:10;;;;;;;1.23;0.90;;;21.30;46.70;;;;;;5052387;28;20132;-10
2022/10/03 07:39:57;;;;;;;1.90;1.00;;;21.20;46.40;;;;;;5051506;28;20048;-10
2022/10/03 07:42:39;;;;;;;0.85;0.68;;;21.20;46.40;;;;;;5052078;28;20410;-10
2022/10/03 07:45:22;;;;;;;;;;;21.30;46.40;;;;;;5052329;28;20049;-10
2022/10/03 07:48:00;;;;;;;1.40;0.85;;;21.20;46.50;;;;;;5051782;28;19916;-10
2022/10/03 07:50:44;;;;;;;2.22;1.02;;;21.30;46.30;;;;;;5051801;28;20486;-10
2022/10/03 07:53:30;;;;;;;2.30;0.90;;;21.40;46.20;;;;;;5051581;28;20488;-10
2022/10/03 07:56:39;;;;;;;1.40;0.75;;;21.40;46.10;;;;;;5051378;28;20057;-10
2022/10/03 07:59:24;;;;;;;1.10;0.77;;;21.40;46.00;;;;;;5051435;28;20132;-10
2022/10/03 08:02:19;;;;;;;2.65;1.08;;;21.40;46.10;;;;;;5051483;28;20078;-10
2022/10/03 08:05:13;;;;;;;1.95;0.90;;;21.40;46.20;;;;;;5051688;28;20456;-10
2022/10/03 08:08:08;;;;;;;1.67;1.00;;;21.40;46.10;;;;;;5051366;28;20064;-10
2022/10/03 08:11:06;;;;;;;2.30;0.90;;;21.40;46.10;;;;;;5051392;28;20056;-10
2022/10/03 08:14:00;;;;;;;1.08;0.73;;;21.40;46.10;;;;;;5051095;28;20128;-10
2022/10/03 08:16:44;;;;;;;1.05;0.70;;;21.40;46.10;;;;;;5051203;28;20063;-10
2022/10/03 08:19:23;;;;;;;0.98;0.82;;;21.40;46.10;;;;;;5050972;28;20121;-10
2022/10/03 08:22:07;;;;;;;1.83;1.10;;;21.40;46.20;;;;;;5050937;28;20401;-10
2022/10/03 08:25:09;;;;;;;1.38;0.75;;;21.40;46.20;;;;;;5051211;28;20133;-11
2022/10/03 08:27:53;;;;;;;1.48;0.90;;;21.30;46.20;;;;;;5051075;28;20053;-10
2022/10/03 08:30:47;;;;;;;1.52;1.00;;;21.30;46.30;;;;;;5051034;28;20052;-10
2022/10/03 08:33:28;;;;;;;2.10;1.00;;;21.30;46.30;;;;;;5051382;28;20068;-9
2022/10/03 08:36:29;;;;;;;1.35;0.82;;;21.30;46.30;;;;;;5051481;28;20218;-10
2022/10/03 08:39:19;;;;;;;2.40;0.90;;;21.30;46.30;;;;;;5050796;28;20053;-10
2022/10/03 08:41:44;;;;;;;1.67;0.90;;;21.30;46.40;;;;;;5050932;28;20061;-10
2022/10/03 08:44:51;;;;;;;1.73;1.13;;;21.30;46.50;;;;;;5050985;28;20456;-10
2022/10/03 08:47:34;;;;;;;2.40;1.20;;;21.20;46.40;;;;;;5050474;28;20113;-10
2022/10/03 08:50:34;;;;;;;1.42;0.75;;;21.30;46.50;;;;;;5050648;28;20052;-10
2022/10/03 08:53:34;;;;;;;1.38;0.80;;;21.30;46.50;;;;;;5050892;28;20048;-10
2022/10/03 08:56:08;;;;;;;1.05;0.85;;;21.30;46.40;;;;;;5051310;28;20132;-10
2022/10/03 08:59:00;;;;;;;1.73;1.10;;;21.30;46.50;;;;;;5050821;28;20067;-9
2022/10/03 09:01:49;;;;;;;1.10;0.88;;;21.20;46.50;;;;;;5055100;28;20041;-10
2022/10/03 09:04:53;;;;;;;1.52;0.80;;;21.20;46.50;;;;;;5050787;28;20057;-10
2022/10/03 09:07:49;;;;;;;0.90;0.70;;;21.20;46.60;;;;;;5050690;28;20110;-10
2022/10/03 09:10:35;;;;;;;1.75;0.90;;;21.20;46.60;;;;;;5053722;28;20106;-10
2022/10/03 09:13:30;;;;;;;2.30;1.02;;;21.20;46.60;;;;;;5051174;28;20443;-9
2022/10/03 09:16:14;;;;;;;1.17;0.68;;;21.30;46.60;;;;;;5050577;28;20513;-10
2022/10/03 09:18:49;;;;;;;1.33;0.73;;;21.20;46.60;;;;;;5050169;28;20148;-10
2022/10/03 09:21:43;;;;;;;1.30;1.00;;;21.30;46.60;;;;;;5050511;28;20044;-10
2022/10/03 09:24:33;;;;;;;1.92;1.00;;;21.20;46.60;;;;;;5050543;28;20060;-10
2022/10/03 09:27:21;;;;;;;1.60;0.90;;;21.20;46.60;;;;;;5050416;28;20065;-10
2022/10/03 09:30:14;;;;;;;1.38;0.88;;;21.20;46.60;;;;;;5050479;28;20141;-10
2022/10/03 09:33:07;;;;;;;1.38;0.82;;;21.20;46.60;;;;;;5050265;28;20563;-10
2022/10/03 09:36:00;;;;;;;2.80;1.27;;;21.30;46.70;;;;;;5049919;28;20049;-10
2022/10/03 09:38:45;;;;;;;1.38;0.88;;;21.20;46.60;;;;;;5050399;28;20048;-10
2022/10/03 09:41:33;;;;;;;2.40;1.08;;;21.20;46.60;;;;;;5050549;28;20114;-10
2022/10/03 09:44:28;;;;;;;1.58;0.98;;;21.20;46.60;;;;;;5050211;28;20049;-10
2022/10/03 09:47:22;;;;;;;2.53;1.10;;;21.20;46.60;;;;;;5049952;28;20132;-10
2022/10/03 09:50:19;;;;;;;1.10;0.70;;;21.30;46.70;;;;;;5050110;28;20048;-10
2022/10/03 09:53:16;;;;;;;1.98;1.08;;;21.20;46.60;;;;;;5050216;28;20401;-10
2022/10/03 09:56:12;;;;;;;2.20;1.05;;;21.20;46.60;;;;;;5050023;28;20510;-10
2022/10/03 09:59:15;;;;;;;1.13;0.80;;;21.30;46.70;;;;;;5049898;28;20057;-10
2022/10/03 10:01:52;;;;;;;2.17;0.90;;;21.30;46.70;;;;;;5049944;28;20160;-10
2022/10/03 10:04:24;;;;;;;1.90;1.00;;;21.20;46.60;;;;;;5049979;28;20048;-10
2022/10/03 10:07:18;;;;;;;1.35;0.80;;;21.20;46.60;;;;;;5049947;28;20052;-10
2022/10/03 10:09:58;;;;;;;2.30;0.93;;;21.20;46.60;;;;;;5049896;28;20049;-10
2022/10/03 10:13:21;;;;;;;1.17;0.95;;;21.20;46.70;;;;;;5050118;28;20045;-10
2022/10/03 10:16:08;;;;;;;2.63;1.20;;;21.20;46.70;;;;;;5057215;28;20041;-11
2022/10/03 10:18:48;;;;;;;1.20;0.73;;;21.30;46.60;;;;;;5055536;28;20052;-10
2022/10/03 10:21:38;;;;;;;1.60;0.90;;;21.30;46.60;;;;;;5050161;28;20064;-9
2022/10/03 10:24:23;;;;;;;1.95;1.10;;;21.30;46.60;;;;;;5049485;28;20049;-10
2022/10/03 10:27:12;;;;;;;1.52;1.10;;;21.20;46.60;;;;;;5050213;28;20067;-10
2022/10/03 10:30:05;;;;;;;1.55;0.98;;;21.20;46.60;;;;;;5049640;28;20132;-10
2022/10/03 10:33:15;;;;;;;2.30;1.15;;;21.20;46.70;;;;;;5049904;28;20049;-10
2022/10/03 10:36:05;;;;;;;3.92;1.10;;;21.20;46.80;;;;;;5049485;28;20045;-10
2022/10/03 10:38:44;;;;;;;2.47;0.95;;;21.20;46.70;;;;;;5049660;28;20103;-10
2022/10/03 10:41:46;;;;;;;1.25;0.80;;;21.20;46.70;;;;;;5049811;28;20049;-10
2022/10/03 10:44:20;;;;;;;0.98;0.80;;;21.20;46.70;;;;;;5049417;28;20074;-10
2022/10/03 10:47:07;;;;;;;2.13;1.00;;;21.20;46.70;;;;;;5051208;28;20049;-10
2022/10/03 10:50:00;;;;;;;1.35;0.77;;;21.20;46.70;;;;;;5052334;28;20045;-10
2022/10/03 10:52:41;;;;;;;1.10;0.90;;;21.20;46.70;;;;;;5052371;28;20105;-10
2022/10/03 10:55:34;;;;;;;1.63;0.77;;;21.30;46.70;;;;;;5052276;28;20045;-10
2022/10/03 10:58:36;;;;;;;1.70;0.88;;;21.30;46.60;;;;;;5052267;28;20052;-10
2022/10/03 11:01:39;;;;;;;2.08;0.82;;;21.30;46.60;;;;;;5052553;28;20140;-10
2022/10/03 11:04:59;;;;;;;2.15;0.93;;;21.30;46.60;;;;;;5052435;28;20485;-10
2022/10/03 11:08:05;;;;;;;2.03;0.80;;;21.30;46.60;;;;;;5052189;28;20143;-10
2022/10/03 11:10:51;;;;;;;2.05;1.00;;;21.30;46.70;;;;;;5051979;28;20113;-11
2022/10/03 11:13:57;;;;;;;1.30;0.80;;;21.30;46.70;;;;;;5052500;28;20517;-11
2022/10/03 11:17:08;;;;;;;2.60;1.10;;;21.20;46.70;;;;;;5052064;28;20053;-10
2022/10/03 11:19:53;;;;;;;;;;;21.20;46.70;;;;;;5033585;28;20049;-10
2022/10/03 11:22:57;;;;;;;1.80;0.95;;;21.20;46.70;;;;;;5051881;28;19962;-11
2022/10/03 11:25:53;;;;;;;2.40;1.23;;;21.10;46.80;;;;;;5052186;28;20491;-11
2022/10/03 11:28:32;;;;;;;1.42;0.70;;;21.20;46.80;;;;;;5051951;28;20053;-11
2022/10/03 11:31:35;;;;;;;1.75;0.80;;;21.20;46.80;;;;;;5052263;28;20084;-11
2022/10/03 11:34:37;;;;;;;1.38;1.00;;;21.20;46.80;;;;;;5052362;28;20378;-11
2022/10/03 11:37:14;;;;;;;2.67;1.05;;;21.20;46.70;;;;;;5051636;28;20077;-11
2022/10/03 11:40:03;;;;;;;1.90;0.80;;;21.20;46.70;;;;;;5051806;28;20048;-11
2022/10/03 11:42:54;;;;;;;1.35;1.10;;;21.20;46.70;;;;;;5051679;28;20102;-11
2022/10/03 11:45:38;;;;;;;2.53;0.98;;;21.20;46.70;;;;;;5051941;28;20053;-11
2022/10/03 11:48:19;;;;;;;1.33;0.80;;;21.20;46.70;;;;;;5052215;28;20399;-11
2022/10/03 11:50:53;;;;;;;2.05;0.90;;;21.20;46.70;;;;;;5052025;28;20055;-11
2022/10/03 11:53:44;;;;;;;1.13;0.77;;;21.20;46.70;;;;;;5051921;28;20452;-11
2022/10/03 11:56:33;;;;;;;1.27;0.73;;;21.20;46.70;;;;;;5051139;28;20059;-11
2022/10/03 11:59:27;;;;;;;1.70;0.88;;;21.20;46.80;;;;;;5051357;28;20374;-11
2022/10/03 12:02:19;;;;;;;1.67;0.93;;;21.20;46.80;;;;;;5051457;28;20143;-11
2022/10/03 12:05:01;;;;;;;2.45;1.00;;;21.20;46.70;;;;;;5051636;28;20068;-11
2022/10/03 12:11:17;;;;;;;3.17;1.00;;;21.30;46.70;;;;;;5051173;28;20136;-11
2022/10/03 12:14:08;;;;;;;1.52;0.82;;;21.30;46.70;;;;;;5051221;28;20152;-11
2022/10/03 12:16:56;;;;;;;0.98;0.70;;;21.30;46.70;;;;;;5051261;28;20486;-11
2022/10/03 12:19:43;;;;;;;1.33;0.82;;;21.30;46.70;;;;;;5051128;28;20483;-11
2022/10/03 12:22:34;;;;;;;1.90;0.95;;;21.30;46.70;;;;;;5051491;28;20053;-11
2022/10/03 12:25:20;;;;;;;2.03;0.90;;;21.30;46.70;;;;;;5051482;28;20492;-11
2022/10/03 12:28:11;;;;;;;1.35;0.90;;;21.30;46.80;;;;;;5051043;28;20379;-11
2022/10/03 12:30:48;;;;;;;1.73;1.00;;;21.30;46.80;;;;;;5051128;28;20120;-11
2022/10/03 12:33:46;;;;;;;2.00;0.82;;;21.30;46.70;;;;;;5051017;28;20136;-11
2022/10/03 12:36:35;;;;;;;1.08;0.77;;;21.20;46.70;;;;;;5050923;28;20053;-11
2022/10/03 12:39:18;;;;;;;1.65;0.80;;;21.30;46.70;;;;;;5050885;28;20053;-11
2022/10/03 12:41:47;;;;;;;1.08;0.80;;;21.20;46.70;;;;;;5050931;28;20084;-11
2022/10/03 12:44:30;;;;;;;2.28;1.30;;;21.30;46.80;;;;;;5051032;28;20143;-11
2022/10/03 12:47:22;;;;;;;1.67;0.95;;;21.30;46.80;;;;;;5050648;28;20049;-12
2022/10/03 12:50:11;;;;;;;1.13;0.82;;;21.20;46.70;;;;;;5051743;28;20569;-11
2022/10/03 12:52:53;;;;;;;1.45;0.95;;;21.20;46.70;;;;;;5050876;28;20498;-11
2022/10/03 12:55:27;;;;;;;0.80;0.68;;;21.20;46.70;;;;;;5051366;28;20057;-11
2022/10/03 12:58:00;;;;;;;1.40;0.80;;;21.30;46.80;;;;;;5050773;28;20090;-11
2022/10/03 13:00:29;;;;;;;0.95;0.85;;;21.20;46.80;;;;;;5051024;28;20528;-11
2022/10/03 13:03:16;;;;;;;1.08;0.70;;;21.20;46.80;;;;;;5051300;28;20045;-11
2022/10/03 13:06:04;;;;;;;1.88;0.90;;;21.20;46.80;;;;;;5050644;28;20049;-11
2022/10/03 13:08:51;;;;;;;1.10;0.63;;;21.20;46.90;;;;;;5049465;28;20475;-11
2022/10/03 13:11:49;;;;;;;1.52;0.73;;;21.20;46.90;;;;;;5050853;28;20045;-11
2022/10/03 13:14:45;;;;;;;1.15;1.00;;;21.20;46.90;;;;;;5050628;28;20517;-11
2022/10/03 13:17:18;;;;;;;1.10;0.80;;;21.20;46.80;;;;;;5050776;28;20418;-11
2022/10/03 13:20:02;;;;;;;1.77;0.90;;;21.20;46.90;;;;;;5050372;28;20045;-11
2022/10/03 13:22:51;;;;;;;1.13;0.75;;;21.20;46.90;;;;;;5050530;28;20053;-11
2022/10/03 13:25:30;;;;;;;1.23;0.80;;;21.20;46.90;;;;;;5050378;28;20128;-11
2022/10/03 13:28:17;;;;;;;1.48;0.80;;;21.20;47.00;;;;;;5050204;28;20497;-11
2022/10/03 13:30:53;;;;;;;1.67;0.90;;;21.20;46.90;;;;;;5050739;28;20040;-11
2022/10/03 13:33:35;;;;;;;1.17;0.73;;;21.20;46.90;;;;;;5050339;28;20049;-11
2022/10/03 13:36:27;;;;;;;1.08;0.60;;;21.20;47.00;;;;;;5050400;28;20048;-11
2022/10/03 13:39:18;;;;;;;1.73;0.88;;;21.10;46.90;;;;;;5050074;28;20057;-11
2022/10/03 13:42:07;;;;;;;1.60;0.60;;;21.20;47.00;;;;;;5050600;28;20044;-11
2022/10/03 13:44:54;;;;;;;2.15;0.85;;;21.20;47.00;;;;;;5050269;28;20052;-11
2022/10/03 13:47:23;;;;;;;1.27;0.80;;;21.20;47.00;;;;;;5050255;28;20045;-11
2022/10/03 13:49:48;;;;;;;1.33;0.80;;;21.20;47.00;;;;;;5050114;28;20451;-11
2022/10/03 13:52:29;;;;;;;2.33;1.23;;;21.20;47.00;;;;;;5050696;28;20053;-11
2022/10/03 13:55:25;;;;;;;1.25;0.80;;;21.20;47.00;;;;;;5050213;28;20071;-11
2022/10/03 13:58:14;;;;;;;1.42;0.70;;;21.10;47.00;;;;;;5050287;28;20080;-11
2022/10/03 14:01:16;;;;;;;2.10;1.00;;;21.20;47.10;;;;;;5050265;28;20051;-11
2022/10/03 14:04:06;;;;;;;1.27;0.80;;;21.20;47.10;;;;;;5049643;28;20133;-11
2022/10/03 14:06:45;;;;;;;1.48;0.85;;;21.20;47.00;;;;;;5050179;28;20056;-11
2022/10/03 14:09:31;;;;;;;1.42;0.75;;;21.20;47.00;;;;;;5049962;28;20105;-11
2022/10/03 14:12:24;;;;;;;1.42;0.80;;;21.20;47.10;;;;;;5050280;28;20520;-11
2022/10/03 14:15:13;;;;;;;0.80;0.80;;;21.20;47.10;;;;;;5049873;28;20147;-11
2022/10/03 14:18:00;;;;;;;1.38;0.63;;;21.20;47.10;;;;;;5049490;28;20113;-11
2022/10/03 14:20:58;;;;;;;1.70;0.90;;;21.20;47.20;;;;;;5049351;28;20060;-11
2022/10/03 14:23:42;;;;;;;1.70;0.70;;;21.10;47.10;;;;;;5049865;28;20105;-11
2022/10/03 14:26:18;;;;;;;1.40;0.90;;;21.10;47.10;;;;;;5049513;28;20045;-11
2022/10/03 14:29:00;;;;;;;0.82;0.60;;;21.20;47.10;;;;;;5049916;28;20068;-11
2022/10/03 14:31:42;;;;;;;1.35;0.80;;;21.10;47.10;;;;;;5049601;28;20490;-11
2022/10/03 14:34:16;;;;;;;1.55;0.80;;;21.10;47.10;;;;;;5049978;28;20493;-11
2022/10/03 14:37:01;;;;;;;1.70;0.70;;;21.10;47.10;;;;;;5049515;28;20049;-11
2022/10/03 14:39:38;;;;;;;1.67;1.00;;;21.10;47.10;;;;;;5049270;28;20080;-11
2022/10/03 14:42:15;;;;;;;1.42;0.88;;;21.20;47.20;;;;;;5049488;28;20072;-11
2022/10/03 14:44:45;;;;;;;0.82;0.70;;;21.20;47.20;;;;;;5049738;28;20482;-11
2022/10/03 14:47:16;;;;;;;1.55;0.80;;;21.10;47.10;;;;;;5049215;28;20506;-11
2022/10/03 14:49:55;;;;;;;1.38;0.80;;;21.10;47.10;;;;;;5049358;28;20048;-11